Knossos Palace — SYQO — position and weather

sailwx.info

Track history (hours):
 
Tides and Currents Weather Stations Pressure Air Temp Water Temp Dewpoint Dewpoint Depression Visibility Wind Speed Wind Dir Waves Ship Positions

Knossos Palace

Last reported at 2017-Mar-22 21:30 UTC. Time now 2017-Mar-24 02:16 UTC.
Position N 37°19' E 023°54'.

Length 214 m; beam 26.4 m; draft 7.3 m.

Type: Ship. MMSI: 237641000.

Date/timePositionNaut miles runAvg speedWind from/ knotsBaromVisibWave heightAir tempDewpointWater temp
2017-Mar-22 21:30N 37°19' E 023°54'1919.2
2017-Mar-22 20:30N 37°37' E 023°44'1617.0
2017-Mar-22 19:34N 37°52' E 023°37'5 5.0
2017-Mar-22 18:34N 37°57' E 023°38'0 0.0
2017-Mar-22 17:34N 37°57' E 023°38'0 0.0
2017-Mar-22 16:34N 37°57' E 023°38'0 0.0
2017-Mar-22 10:18N 37°57' E 023°38'0 0.0
2017-Mar-22 09:33N 37°57' E 023°38'0 0.0
2017-Mar-22 08:31N 37°57' E 023°38'0 0.0
2017-Mar-22 07:30N 37°57' E 023°38'0 0.0
2017-Mar-22 06:33N 37°57' E 023°38'0 0.0
2017-Mar-22 05:33N 37°57' E 023°38'0 0.2
2017-Mar-22 04:33N 37°56' E 023°38'1716.6
2017-Mar-22 03:32N 37°41' E 023°45'2019.8
2017-Mar-22 02:33N 37°22' E 023°53'18 0.6
2017-Mar-20 20:17N 37°38' E 023°44'1418.9
2017-Mar-20 19:33N 37°50' E 023°37'6 6.4
2017-Mar-20 18:34N 37°57' E 023°38'0 0.0
2017-Mar-20 17:32N 37°57' E 023°38'0 0.0
2017-Mar-20 16:31N 37°57' E 023°38'0 0.0
2017-Mar-20 15:31N 37°57' E 023°38'0 0.0
2017-Mar-20 14:31N 37°57' E 023°38'0 0.0
2017-Mar-20 13:31N 37°57' E 023°38'0 0.0
2017-Mar-20 12:31N 37°57' E 023°38'0 0.0
2017-Mar-20 11:28N 37°57' E 023°38'0 0.0
2017-Mar-20 09:31N 37°57' E 023°38'0 0.0
2017-Mar-20 08:25N 37°57' E 023°38'0 0.0
2017-Mar-20 07:31N 37°57' E 023°38'0 0.0
2017-Mar-20 06:28N 37°57' E 023°38'0 0.0
2017-Mar-20 05:31N 37°57' E 023°38'1 1.1
2017-Mar-20 04:33N 37°56' E 023°37'1918.7
2017-Mar-20 03:33N 37°39' E 023°46'2020.0
2017-Mar-20 02:33N 37°20' E 023°55'3 0.1
2017-Mar-18 21:32N 37°17' E 023°55'1818.1
2017-Mar-18 20:33N 37°33' E 023°47'1818.3
2017-Mar-18 19:33N 37°50' E 023°37'7 6.9
2017-Mar-18 18:33N 37°57' E 023°38'0 0.0
2017-Mar-18 17:32N 37°57' E 023°38'0 0.0
2017-Mar-18 16:32N 37°57' E 023°38'0 0.0
2017-Mar-18 15:32N 37°57' E 023°38'0 0.0
2017-Mar-18 14:32N 37°57' E 023°38'0 0.0
2017-Mar-18 13:32N 37°57' E 023°38'0 0.0
2017-Mar-18 12:32N 37°57' E 023°38'0 0.0
2017-Mar-18 11:32N 37°57' E 023°38'0 0.0
2017-Mar-18 10:32N 37°57' E 023°38'0 0.0
2017-Mar-18 09:32N 37°57' E 023°38'0 0.0
2017-Mar-18 08:32N 37°57' E 023°38'0 0.0
2017-Mar-18 07:32N 37°57' E 023°38'0 0.0
2017-Mar-18 06:26N 37°57' E 023°38'0 0.0
2017-Mar-18 05:32N 37°57' E 023°38'0 0.3
2017-Mar-18 04:33N 37°56' E 023°38'1817.9
2017-Mar-18 03:33N 37°40' E 023°46'109 4.3
2017-Mar-17 02:00N 36°00' E 024°42'10818.9 360 / 61016.010.8 13.010.414.0
2017-Mar-16 20:16N 37°37' E 023°43'1318.7
2017-Mar-16 19:34N 37°50' E 023°37'7 7.2
2017-Mar-16 18:34N 37°57' E 023°38'0 0.0
2017-Mar-16 17:32N 37°57' E 023°38'0 0.0
2017-Mar-16 16:32N 37°57' E 023°38'0 0.0
2017-Mar-16 15:32N 37°57' E 023°38'0 0.0
2017-Mar-16 14:32N 37°57' E 023°38'0 0.0
2017-Mar-16 13:32N 37°57' E 023°38'0 0.0
2017-Mar-16 12:32N 37°57' E 023°38'0 0.0
2017-Mar-16 11:32N 37°57' E 023°38'0 0.0
2017-Mar-16 10:32N 37°57' E 023°38'0 0.0
2017-Mar-16 09:32N 37°57' E 023°38'0 0.0
2017-Mar-16 08:32N 37°57' E 023°38'0 0.0
2017-Mar-16 07:32N 37°57' E 023°38'0 0.0
2017-Mar-16 06:32N 37°57' E 023°38'0 0.0
2017-Mar-16 05:32N 37°57' E 023°38'0 0.1
2017-Mar-16 04:33N 37°57' E 023°38'1716.8
2017-Mar-16 03:33N 37°41' E 023°45'19 0.6
2017-Mar-14 21:09N 37°22' E 023°52'1118.8
2017-Mar-14 20:33N 37°32' E 023°46'1818.5
2017-Mar-14 19:33N 37°49' E 023°37'7 7.5
2017-Mar-14 18:33N 37°57' E 023°38'0 0.0
2017-Mar-14 17:33N 37°57' E 023°38'0 0.0
2017-Mar-14 16:33N 37°57' E 023°38'0 0.0
2017-Mar-14 15:33N 37°57' E 023°38'0 0.0
2017-Mar-14 14:33N 37°57' E 023°38'0 0.0
2017-Mar-14 13:33N 37°57' E 023°38'0 0.0
2017-Mar-14 12:33N 37°57' E 023°38'0 0.0
2017-Mar-14 11:33N 37°57' E 023°38'0 0.0
2017-Mar-14 10:33N 37°57' E 023°38'0 0.0
2017-Mar-14 08:33N 37°57' E 023°38'0 0.0
2017-Mar-14 07:33N 37°57' E 023°38'0 0.0
2017-Mar-14 06:33N 37°57' E 023°38'0 0.0
2017-Mar-14 05:33N 37°57' E 023°38'0 0.4
2017-Mar-14 04:33N 37°56' E 023°38'1818.5
2017-Mar-14 03:34N 37°39' E 023°46'2918.7
2017-Mar-14 02:00N 37°12' E 024°00'80 3.3 070 / 81018.710.8 14.012.314.0
2017-Mar-13 02:00N 36°00' E 024°42'   270 / 201010.710.8 15.013.415.0
Track history (hours):
 
Tides and Currents Weather Stations Pressure Air Temp Water Temp Dewpoint Dewpoint Depression Visibility Wind Speed Wind Dir Waves Ship Positions

Knossos Palace

Last reported at 2017-Mar-22 21:30 UTC. Time now 2017-Mar-24 02:16 UTC.
Position N 37°19' E 023°54'.

Length 214 m; beam 26.4 m; draft 7.3 m.

Type: Ship. MMSI: 237641000.

Date/timePositionNaut miles runAvg speedWind from/ knotsBaromVisibWave heightAir tempDewpointWater temp
2017-Mar-22 21:30N 37°19' E 023°54'1919.2
2017-Mar-22 20:30N 37°37' E 023°44'1617.0
2017-Mar-22 19:34N 37°52' E 023°37'5 5.0
2017-Mar-22 18:34N 37°57' E 023°38'0 0.0
2017-Mar-22 17:34N 37°57' E 023°38'0 0.0
2017-Mar-22 16:34N 37°57' E 023°38'0 0.0
2017-Mar-22 10:18N 37°57' E 023°38'0 0.0
2017-Mar-22 09:33N 37°57' E 023°38'0 0.0
2017-Mar-22 08:31N 37°57' E 023°38'0 0.0
2017-Mar-22 07:30N 37°57' E 023°38'0 0.0
2017-Mar-22 06:33N 37°57' E 023°38'0 0.0
2017-Mar-22 05:33N 37°57' E 023°38'0 0.2
2017-Mar-22 04:33N 37°56' E 023°38'1716.6
2017-Mar-22 03:32N 37°41' E 023°45'2019.8
2017-Mar-22 02:33N 37°22' E 023°53'18 0.6
2017-Mar-20 20:17N 37°38' E 023°44'1418.9
2017-Mar-20 19:33N 37°50' E 023°37'6 6.4
2017-Mar-20 18:34N 37°57' E 023°38'0 0.0
2017-Mar-20 17:32N 37°57' E 023°38'0 0.0
2017-Mar-20 16:31N 37°57' E 023°38'0 0.0
2017-Mar-20 15:31N 37°57' E 023°38'0 0.0
2017-Mar-20 14:31N 37°57' E 023°38'0 0.0
2017-Mar-20 13:31N 37°57' E 023°38'0 0.0
2017-Mar-20 12:31N 37°57' E 023°38'0 0.0
2017-Mar-20 11:28N 37°57' E 023°38'0 0.0
2017-Mar-20 09:31N 37°57' E 023°38'0 0.0
2017-Mar-20 08:25N 37°57' E 023°38'0 0.0
2017-Mar-20 07:31N 37°57' E 023°38'0 0.0
2017-Mar-20 06:28N 37°57' E 023°38'0 0.0
2017-Mar-20 05:31N 37°57' E 023°38'1 1.1
2017-Mar-20 04:33N 37°56' E 023°37'1918.7
2017-Mar-20 03:33N 37°39' E 023°46'2020.0
2017-Mar-20 02:33N 37°20' E 023°55'3 0.1
2017-Mar-18 21:32N 37°17' E 023°55'1818.1
2017-Mar-18 20:33N 37°33' E 023°47'1818.3
2017-Mar-18 19:33N 37°50' E 023°37'7 6.9
2017-Mar-18 18:33N 37°57' E 023°38'0 0.0
2017-Mar-18 17:32N 37°57' E 023°38'0 0.0
2017-Mar-18 16:32N 37°57' E 023°38'0 0.0
2017-Mar-18 15:32N 37°57' E 023°38'0 0.0
2017-Mar-18 14:32N 37°57' E 023°38'0 0.0
2017-Mar-18 13:32N 37°57' E 023°38'0 0.0
2017-Mar-18 12:32N 37°57' E 023°38'0 0.0
2017-Mar-18 11:32N 37°57' E 023°38'0 0.0
2017-Mar-18 10:32N 37°57' E 023°38'0 0.0
2017-Mar-18 09:32N 37°57' E 023°38'0 0.0
2017-Mar-18 08:32N 37°57' E 023°38'0 0.0
2017-Mar-18 07:32N 37°57' E 023°38'0 0.0
2017-Mar-18 06:26N 37°57' E 023°38'0 0.0
2017-Mar-18 05:32N 37°57' E 023°38'0 0.3
2017-Mar-18 04:33N 37°56' E 023°38'1817.9
2017-Mar-18 03:33N 37°40' E 023°46'109 4.3
2017-Mar-17 02:00N 36°00' E 024°42'10818.9 360 / 61016.010.8 13.010.414.0
2017-Mar-16 20:16N 37°37' E 023°43'1318.7
2017-Mar-16 19:34N 37°50' E 023°37'7 7.2
2017-Mar-16 18:34N 37°57' E 023°38'0 0.0
2017-Mar-16 17:32N 37°57' E 023°38'0 0.0
2017-Mar-16 16:32N 37°57' E 023°38'0 0.0
2017-Mar-16 15:32N 37°57' E 023°38'0 0.0
2017-Mar-16 14:32N 37°57' E 023°38'0 0.0
2017-Mar-16 13:32N 37°57' E 023°38'0 0.0
2017-Mar-16 12:32N 37°57' E 023°38'0 0.0
2017-Mar-16 11:32N 37°57' E 023°38'0 0.0
2017-Mar-16 10:32N 37°57' E 023°38'0 0.0
2017-Mar-16 09:32N 37°57' E 023°38'0 0.0
2017-Mar-16 08:32N 37°57' E 023°38'0 0.0
2017-Mar-16 07:32N 37°57' E 023°38'0 0.0
2017-Mar-16 06:32N 37°57' E 023°38'0 0.0
2017-Mar-16 05:32N 37°57' E 023°38'0 0.1
2017-Mar-16 04:33N 37°57' E 023°38'1716.8
2017-Mar-16 03:33N 37°41' E 023°45'19 0.6
2017-Mar-14 21:09N 37°22' E 023°52'1118.8
2017-Mar-14 20:33N 37°32' E 023°46'1818.5
2017-Mar-14 19:33N 37°49' E 023°37'7 7.5
2017-Mar-14 18:33N 37°57' E 023°38'0 0.0
2017-Mar-14 17:33N 37°57' E 023°38'0 0.0
2017-Mar-14 16:33N 37°57' E 023°38'0 0.0
2017-Mar-14 15:33N 37°57' E 023°38'0 0.0
2017-Mar-14 14:33N 37°57' E 023°38'0 0.0
2017-Mar-14 13:33N 37°57' E 023°38'0 0.0
2017-Mar-14 12:33N 37°57' E 023°38'0 0.0
2017-Mar-14 11:33N 37°57' E 023°38'0 0.0
2017-Mar-14 10:33N 37°57' E 023°38'0 0.0
2017-Mar-14 08:33N 37°57' E 023°38'0 0.0
2017-Mar-14 07:33N 37°57' E 023°38'0 0.0
2017-Mar-14 06:33N 37°57' E 023°38'0 0.0
2017-Mar-14 05:33N 37°57' E 023°38'0 0.4
2017-Mar-14 04:33N 37°56' E 023°38'1818.5
2017-Mar-14 03:34N 37°39' E 023°46'2918.7
2017-Mar-14 02:00N 37°12' E 024°00'80 3.3 070 / 81018.710.8 14.012.314.0
2017-Mar-13 02:00N 36°00' E 024°42'   270 / 201010.710.8 15.013.415.0

Dump ship's entire track history